»·PEaware :: N252RK KOTH-KEUG

N252RK :: KOTH-KEUG

FLIGHT INFORMATION

Flight Status: Arrived
Operator: Privately registered:
United States
More flights under this callsign
Pilot: Ryan K. (5639)
Aircraft: CESSNA R182 TURBO SKYLANE
(C82R)
More flights by this aircraft type
Origin: KOTH North Bend Mun
United States
Destination: KEUG Mahlon Sweet
United States
More flights between these airports :: More routes between these airports
Route: OTH6 SCOTY V121 EUG
File this flight plan on PilotEdge
Remarks:
Altitude:
(Current/Filed)
5,000ft
Speed:
(Current/Filed)
150kts
Departed: 01-Jan-18 05:34 PM
Arrived: 01-Jan-18 06:09 PM
Distance/Time
Traveled:
62nm/0:34
Distance/Time
To Go:
Arrived

Flight Plot

Page will automatically refresh every two minutes.

Flight plan parsing failed; only flown route is shown


Map Options




Map Legend


Flown Route
Filed Route
Departure Airport
Arrival Airport
Navaid (VOR, NDB)
Fix

Horizontal Profiles

Position Reports

Time Latitude Longitude Heading Altitude Ground
Speed
01-Jan-18 17:22 43.415426 -124.245430 332 8ft 0kts
01-Jan-18 17:23 43.415426 -124.245430 332 8ft 0kts
01-Jan-18 17:24 43.415426 -124.245430 332 8ft 0kts
01-Jan-18 17:25 43.415426 -124.245430 332 8ft 0kts
01-Jan-18 17:26 43.415426 -124.245430 332 8ft 0kts
01-Jan-18 17:27 43.415426 -124.245430 332 8ft 0kts
01-Jan-18 17:28 43.415426 -124.245430 332 8ft 0kts
01-Jan-18 17:29 43.415426 -124.245430 332 8ft 0kts
01-Jan-18 17:30 43.415434 -124.245436 330 8ft 0kts
01-Jan-18 17:31 43.415434 -124.245436 330 8ft 0kts
01-Jan-18 17:32 43.415434 -124.245436 330 8ft 0kts
01-Jan-18 17:33 43.415434 -124.245436 330 8ft 0kts
01-Jan-18 17:34 43.415434 -124.245436 330 8ft 0kts
01-Jan-18 17:35 43.415879 -124.245331 12 8ft 0kts
01-Jan-18 17:36 43.415923 -124.244553 149 8ft 11kts
01-Jan-18 17:37 43.411475 -124.240973 150 8ft 19kts
01-Jan-18 17:38 43.408969 -124.238824 88 8ft 0kts
01-Jan-18 17:39 43.408969 -124.238824 88 8ft 0kts
01-Jan-18 17:40 43.415463 -124.242934 325 247ft 85kts
01-Jan-18 17:41 43.420429 -124.273064 236 1716ft 112kts
01-Jan-18 17:42 43.431276 -124.298216 24 2926ft 126kts
01-Jan-18 17:43 43.432777 -124.251821 103 4203ft 129kts
01-Jan-18 17:44 43.422719 -124.201854 104 4967ft 157kts
01-Jan-18 17:45 43.425339 -124.146315 35 4948ft 159kts
01-Jan-18 17:46 43.460000 -124.111038 38 5026ft 155kts
01-Jan-18 17:47 43.491811 -124.069911 41 5022ft 158kts
01-Jan-18 17:48 43.522770 -124.026767 44 5023ft 158kts
01-Jan-18 17:49 43.554230 -123.984696 40 5011ft 158kts
01-Jan-18 17:50 43.586220 -123.942905 42 4929ft 161kts
01-Jan-18 17:51 43.617177 -123.900484 43 4940ft 155kts
01-Jan-18 17:52 43.648112 -123.858997 42 4929ft 154kts
01-Jan-18 17:53 43.679643 -123.818308 41 4898ft 155kts
01-Jan-18 17:54 43.710147 -123.776658 42 4918ft 154kts
01-Jan-18 17:55 43.739793 -123.734321 43 4945ft 152kts
01-Jan-18 17:56 43.769229 -123.692118 42 4962ft 152kts
01-Jan-18 17:57 43.800712 -123.652603 41 4916ft 152kts
01-Jan-18 17:58 43.831333 -123.613436 39 4986ft 150kts
01-Jan-18 17:59 43.862217 -123.573558 42 4978ft 151kts
01-Jan-18 18:00 43.890208 -123.530228 46 4982ft 151kts
01-Jan-18 18:01 43.921789 -123.492252 38 4997ft 150kts
01-Jan-18 18:02 43.945450 -123.447321 89 4968ft 151kts
01-Jan-18 18:03 43.924177 -123.398073 111 4533ft 150kts
01-Jan-18 18:04 43.909266 -123.344545 110 3904ft 148kts
01-Jan-18 18:05 43.894598 -123.292966 108 3724ft 142kts
01-Jan-18 18:06 43.888799 -123.239101 87 3709ft 141kts
01-Jan-18 18:07 43.908775 -123.202856 2 3596ft 138kts
01-Jan-18 18:08 43.947736 -123.201873 0 2867ft 140kts
01-Jan-18 18:09 43.986036 -123.203749 355 2254ft 139kts
01-Jan-18 18:10 44.022757 -123.208940 356 2136ft 133kts
01-Jan-18 18:11 44.059445 -123.213687 356 1772ft 130kts
01-Jan-18 18:12 44.095209 -123.218219 356 974ft 128kts
01-Jan-18 18:13 44.125432 -123.229345 350 882ft 110kts
01-Jan-18 18:14 44.145545 -123.224841 119 786ft 79kts
01-Jan-18 18:15 44.129089 -123.219052 179 364ft 27kts
01-Jan-18 18:16 44.123621 -123.216380 160 364ft 17kts

Navigation Log

Ident Type
Flight plan parsing failed, navigation log unavailable